AAY3157 KCAK-KJAX
Flight info
| Callsign | AAY3157 |
|---|---|
| Flight time | 1h 37m |
| Altitude | 38000 |
| Route | CTW JPU HVQ J85 SPA IRQ FINNE OHDEA2 |
| Aircraft | A320/M-SDE3FGHIRWY/LB1 |
Departure
| Time | 2026-05-04 15:20 |
|---|---|
| Airport | Akron Canton Regional Airport (KCAK) |
Arrival
| Time | 2026-05-04 16:58 |
|---|---|
| Airport | Jacksonville International Airport (KJAX) |
| Time | Latitude | Longitude | Altitude | Speed | Heading |
|---|---|---|---|---|---|
| 2026-05-04 14:56 | 40.91409 | -81.43752 | 1223 ft | 0 kts | 93° |
| 2026-05-04 15:07 | 40.91409 | -81.43762 | 1223 ft | 4 kts | 92° |
| 2026-05-04 15:08 | 40.91410 | -81.43798 | 1223 ft | 4 kts | 89° |
| 2026-05-04 15:08 | 40.91408 | -81.43833 | 1223 ft | 4 kts | 82° |
| 2026-05-04 15:08 | 40.91403 | -81.43867 | 1223 ft | 3 kts | 69° |
| 2026-05-04 15:08 | 40.91402 | -81.43871 | 1223 ft | 0 kts | 68° |
| 2026-05-04 15:13 | 40.91403 | -81.43867 | 1223 ft | 1 kts | 68° |
| 2026-05-04 15:13 | 40.91406 | -81.43858 | 1223 ft | 0 kts | 68° |
| 2026-05-04 15:14 | 40.91433 | -81.43860 | 1223 ft | 9 kts | 328° |
| 2026-05-04 15:14 | 40.91518 | -81.43915 | 1223 ft | 18 kts | 354° |
| 2026-05-04 15:14 | 40.91641 | -81.43873 | 1222 ft | 18 kts | 43° |
| 2026-05-04 15:14 | 40.91699 | -81.43751 | 1223 ft | 14 kts | 65° |
| 2026-05-04 15:15 | 40.91752 | -81.43655 | 1223 ft | 12 kts | 45° |
| 2026-05-04 15:15 | 40.91810 | -81.43586 | 1223 ft | 11 kts | 38° |
| 2026-05-04 15:15 | 40.91867 | -81.43537 | 1223 ft | 9 kts | 29° |
| 2026-05-04 15:16 | 40.91925 | -81.43502 | 1223 ft | 0 kts | 22° |
| 2026-05-04 15:19 | 40.91941 | -81.43494 | 1223 ft | 7 kts | 19° |
| 2026-05-04 15:19 | 40.91997 | -81.43596 | 1222 ft | 9 kts | 225° |
| 2026-05-04 15:20 | 40.91897 | -81.43736 | 1220 ft | 51 kts | 227° |
| 2026-05-04 15:20 | 40.91493 | -81.44306 | 1222 ft | 116 kts | 227° |
| 2026-05-04 15:20 | 40.90822 | -81.45251 | 1294 ft | 158 kts | 226° |
| 2026-05-04 15:20 | 40.90097 | -81.46271 | 2136 ft | 149 kts | 226° |
| 2026-05-04 15:21 | 40.89226 | -81.46996 | 2827 ft | 155 kts | 194° |
| 2026-05-04 15:21 | 40.88083 | -81.47050 | 3134 ft | 177 kts | 182° |
| 2026-05-04 15:21 | 40.85275 | -81.47048 | 3819 ft | 226 kts | 184° |
| 2026-05-04 15:22 | 40.83625 | -81.47063 | 4302 ft | 247 kts | 184° |
| 2026-05-04 15:22 | 40.81878 | -81.47078 | 5124 ft | 254 kts | 184° |
| 2026-05-04 15:22 | 40.78290 | -81.47112 | 6870 ft | 261 kts | 185° |
| 2026-05-04 15:23 | 40.76455 | -81.47130 | 7706 ft | 266 kts | 185° |
| 2026-05-04 15:23 | 40.74588 | -81.47146 | 8525 ft | 271 kts | 185° |
| 2026-05-04 15:23 | 40.72682 | -81.47161 | 9347 ft | 276 kts | 186° |
| 2026-05-04 15:23 | 40.70741 | -81.47176 | 10128 ft | 281 kts | 185° |
| 2026-05-04 15:24 | 40.66564 | -81.47231 | 10776 ft | 325 kts | 186° |
| 2026-05-04 15:24 | 40.61721 | -81.47300 | 11219 ft | 368 kts | 185° |
| 2026-05-04 15:25 | 40.59126 | -81.47320 | 11796 ft | 376 kts | 185° |
| 2026-05-04 15:25 | 40.56489 | -81.47331 | 12411 ft | 381 kts | 185° |
| 2026-05-04 15:25 | 40.53821 | -81.47347 | 13029 ft | 386 kts | 185° |
| 2026-05-04 15:26 | 40.48378 | -81.47394 | 14247 ft | 395 kts | 185° |
| 2026-05-04 15:26 | 40.45612 | -81.47425 | 14803 ft | 400 kts | 185° |
| 2026-05-04 15:26 | 40.39985 | -81.47490 | 15871 ft | 408 kts | 184° |
| 2026-05-04 15:27 | 40.37123 | -81.47516 | 16388 ft | 413 kts | 184° |
| 2026-05-04 15:27 | 40.31312 | -81.47568 | 17405 ft | 421 kts | 184° |
| 2026-05-04 15:28 | 40.25434 | -81.47624 | 18352 ft | 429 kts | 184° |
| 2026-05-04 15:28 | 40.22434 | -81.47585 | 18837 ft | 434 kts | 180° |
| 2026-05-04 15:28 | 40.16373 | -81.46813 | 19784 ft | 440 kts | 178° |
| 2026-05-04 15:29 | 40.13310 | -81.46409 | 20250 ft | 443 kts | 178° |
| 2026-05-04 15:30 | 40.00899 | -81.44779 | 21964 ft | 453 kts | 178° |
| 2026-05-04 15:30 | 39.91417 | -81.43555 | 23108 ft | 460 kts | 178° |
| 2026-05-04 15:31 | 39.85005 | -81.42729 | 23856 ft | 464 kts | 178° |
| 2026-05-04 15:31 | 39.81784 | -81.42311 | 24217 ft | 467 kts | 178° |
| 2026-05-04 15:32 | 39.72074 | -81.41053 | 25211 ft | 472 kts | 178° |
| 2026-05-04 15:32 | 39.65498 | -81.40212 | 25818 ft | 476 kts | 178° |
| 2026-05-04 15:33 | 39.58869 | -81.39364 | 26385 ft | 481 kts | 178° |
| 2026-05-04 15:34 | 39.48845 | -81.38084 | 27355 ft | 482 kts | 178° |
| 2026-05-04 15:34 | 39.45512 | -81.37907 | 27714 ft | 477 kts | 186° |
| 2026-05-04 15:34 | 39.39065 | -81.39314 | 28447 ft | 466 kts | 201° |
| 2026-05-04 15:35 | 39.32839 | -81.41633 | 29199 ft | 464 kts | 201° |
| 2026-05-04 15:35 | 39.29739 | -81.42770 | 29594 ft | 463 kts | 201° |
| 2026-05-04 15:35 | 39.26644 | -81.43896 | 29978 ft | 462 kts | 201° |
| 2026-05-04 15:36 | 39.20473 | -81.46134 | 30701 ft | 459 kts | 201° |
| 2026-05-04 15:36 | 39.17397 | -81.47258 | 31026 ft | 459 kts | 201° |
| 2026-05-04 15:36 | 39.14327 | -81.48380 | 31372 ft | 459 kts | 201° |
| 2026-05-04 15:37 | 39.11255 | -81.49500 | 31698 ft | 458 kts | 201° |
| 2026-05-04 15:37 | 39.08184 | -81.50620 | 32003 ft | 458 kts | 201° |
| 2026-05-04 15:37 | 39.05117 | -81.51738 | 32319 ft | 458 kts | 202° |
| 2026-05-04 15:37 | 39.02048 | -81.52852 | 32632 ft | 457 kts | 202° |
| 2026-05-04 15:38 | 38.99023 | -81.53949 | 32941 ft | 457 kts | 202° |
| 2026-05-04 15:38 | 38.95959 | -81.55061 | 33226 ft | 457 kts | 202° |
| 2026-05-04 15:38 | 38.92890 | -81.56175 | 33509 ft | 457 kts | 202° |
| 2026-05-04 15:38 | 38.89828 | -81.57286 | 33803 ft | 457 kts | 202° |
| 2026-05-04 15:39 | 38.86761 | -81.58395 | 34077 ft | 458 kts | 202° |
| 2026-05-04 15:39 | 38.83689 | -81.59505 | 34375 ft | 457 kts | 202° |
| 2026-05-04 15:39 | 38.77570 | -81.61718 | 34963 ft | 456 kts | 202° |
| 2026-05-04 15:40 | 38.74516 | -81.62817 | 35246 ft | 456 kts | 202° |
| 2026-05-04 15:40 | 38.71503 | -81.63902 | 35529 ft | 455 kts | 202° |
| 2026-05-04 15:40 | 38.68457 | -81.64996 | 35803 ft | 454 kts | 202° |
| 2026-05-04 15:40 | 38.65410 | -81.66091 | 35981 ft | 454 kts | 202° |
| 2026-05-04 15:41 | 38.62368 | -81.67186 | 36026 ft | 453 kts | 202° |
| 2026-05-04 15:41 | 38.56301 | -81.69358 | 36025 ft | 453 kts | 202° |
| 2026-05-04 15:42 | 38.50236 | -81.71533 | 36036 ft | 452 kts | 202° |
| 2026-05-04 15:42 | 38.44207 | -81.73689 | 36036 ft | 452 kts | 202° |
| 2026-05-04 15:43 | 38.38146 | -81.75854 | 36036 ft | 452 kts | 202° |
| 2026-05-04 15:43 | 38.31883 | -81.77158 | 36036 ft | 464 kts | 188° |
| 2026-05-04 15:44 | 38.25410 | -81.77464 | 36044 ft | 465 kts | 188° |
| 2026-05-04 15:44 | 38.18983 | -81.77782 | 36042 ft | 465 kts | 189° |
| 2026-05-04 15:45 | 38.12515 | -81.78104 | 36056 ft | 465 kts | 189° |
| 2026-05-04 15:45 | 38.06051 | -81.78425 | 36050 ft | 465 kts | 189° |
| 2026-05-04 15:46 | 37.99577 | -81.78739 | 36062 ft | 465 kts | 188° |
| 2026-05-04 15:46 | 37.93106 | -81.79053 | 36061 ft | 465 kts | 188° |
| 2026-05-04 15:47 | 37.86629 | -81.79371 | 36063 ft | 465 kts | 189° |
| 2026-05-04 15:47 | 37.80165 | -81.79683 | 36071 ft | 464 kts | 189° |
| 2026-05-04 15:48 | 37.73752 | -81.79999 | 36080 ft | 463 kts | 189° |
| 2026-05-04 15:48 | 37.64069 | -81.80464 | 36093 ft | 463 kts | 189° |
| 2026-05-04 15:49 | 37.57617 | -81.80773 | 36102 ft | 463 kts | 189° |
| 2026-05-04 15:49 | 37.51171 | -81.81082 | 36108 ft | 463 kts | 189° |
| 2026-05-04 15:50 | 37.44730 | -81.81397 | 36109 ft | 462 kts | 189° |
| 2026-05-04 15:50 | 37.38306 | -81.81707 | 36118 ft | 462 kts | 189° |
| 2026-05-04 15:51 | 37.31924 | -81.82020 | 36119 ft | 461 kts | 189° |
| 2026-05-04 15:51 | 37.25502 | -81.82327 | 36122 ft | 461 kts | 189° |
| 2026-05-04 15:52 | 37.19105 | -81.82635 | 36111 ft | 460 kts | 189° |
| 2026-05-04 15:52 | 37.12701 | -81.82939 | 36113 ft | 459 kts | 189° |
| 2026-05-04 15:53 | 37.06352 | -81.83245 | 36121 ft | 459 kts | 189° |
| 2026-05-04 15:53 | 36.99966 | -81.83560 | 36117 ft | 458 kts | 189° |
| 2026-05-04 15:54 | 36.93583 | -81.83858 | 36116 ft | 457 kts | 189° |
| 2026-05-04 15:54 | 36.87224 | -81.84149 | 36126 ft | 457 kts | 189° |
| 2026-05-04 15:55 | 36.80861 | -81.84450 | 36129 ft | 457 kts | 189° |
| 2026-05-04 15:55 | 36.74516 | -81.84752 | 36130 ft | 456 kts | 189° |
| 2026-05-04 15:56 | 36.68215 | -81.85058 | 36136 ft | 456 kts | 189° |
| 2026-05-04 15:56 | 36.61881 | -81.85363 | 36137 ft | 455 kts | 189° |
| 2026-05-04 15:57 | 36.55557 | -81.85660 | 36136 ft | 454 kts | 189° |
| 2026-05-04 15:57 | 36.49237 | -81.85964 | 36133 ft | 454 kts | 189° |
| 2026-05-04 15:58 | 36.42924 | -81.86263 | 36140 ft | 453 kts | 190° |
| 2026-05-04 15:58 | 36.36604 | -81.86554 | 36146 ft | 453 kts | 189° |
| 2026-05-04 15:59 | 36.30330 | -81.86844 | 36146 ft | 453 kts | 190° |
| 2026-05-04 15:59 | 36.24023 | -81.87141 | 36145 ft | 453 kts | 190° |
| 2026-05-04 16:00 | 36.18786 | -81.87382 | 36146 ft | 453 kts | 190° |
| 2026-05-04 16:00 | 36.12494 | -81.87675 | 36157 ft | 452 kts | 190° |
| 2026-05-04 16:01 | 36.06168 | -81.87976 | 36156 ft | 452 kts | 190° |
| 2026-05-04 16:01 | 35.99926 | -81.88268 | 36157 ft | 452 kts | 190° |
| 2026-05-04 16:02 | 35.93638 | -81.88560 | 36157 ft | 452 kts | 190° |
| 2026-05-04 16:03 | 35.84197 | -81.88999 | 36156 ft | 452 kts | 190° |
| 2026-05-04 16:03 | 35.77912 | -81.89290 | 36154 ft | 452 kts | 190° |
| 2026-05-04 16:04 | 35.71616 | -81.89579 | 36147 ft | 452 kts | 190° |
| 2026-05-04 16:04 | 35.62166 | -81.90014 | 36148 ft | 452 kts | 190° |
| 2026-05-04 16:05 | 35.55877 | -81.90296 | 36126 ft | 452 kts | 190° |
| 2026-05-04 16:06 | 35.46487 | -81.90728 | 36131 ft | 451 kts | 190° |
| 2026-05-04 16:07 | 35.33929 | -81.91310 | 36131 ft | 451 kts | 190° |
| 2026-05-04 16:08 | 35.21392 | -81.91876 | 36131 ft | 450 kts | 189° |
| 2026-05-04 16:09 | 35.05726 | -81.92591 | 36127 ft | 450 kts | 189° |
| 2026-05-04 16:10 | 34.93485 | -81.94480 | 36123 ft | 443 kts | 196° |
| 2026-05-04 16:11 | 34.81293 | -81.96655 | 36129 ft | 442 kts | 195° |
| 2026-05-04 16:12 | 34.63037 | -81.99920 | 36147 ft | 442 kts | 195° |
| 2026-05-04 16:13 | 34.50868 | -82.02097 | 36140 ft | 442 kts | 195° |
| 2026-05-04 16:14 | 34.38744 | -82.04253 | 36141 ft | 440 kts | 195° |
| 2026-05-04 16:16 | 34.23556 | -82.06930 | 36147 ft | 441 kts | 195° |
| 2026-05-04 16:17 | 34.08388 | -82.09609 | 36147 ft | 440 kts | 195° |
| 2026-05-04 16:18 | 33.96254 | -82.11738 | 36148 ft | 441 kts | 195° |
| 2026-05-04 16:19 | 33.81073 | -82.14396 | 36155 ft | 441 kts | 195° |
| 2026-05-04 16:20 | 33.66055 | -82.17538 | 36165 ft | 436 kts | 200° |
| 2026-05-04 16:22 | 33.51310 | -82.21732 | 36156 ft | 435 kts | 200° |
| 2026-05-04 16:23 | 33.33555 | -82.26760 | 36162 ft | 438 kts | 200° |
| 2026-05-04 16:25 | 33.15800 | -82.31770 | 36155 ft | 438 kts | 201° |
| 2026-05-04 16:26 | 32.95019 | -82.37601 | 36155 ft | 439 kts | 201° |
| 2026-05-04 16:28 | 32.80145 | -82.41767 | 36157 ft | 439 kts | 201° |
| 2026-05-04 16:29 | 32.59324 | -82.47567 | 36156 ft | 440 kts | 201° |
| 2026-05-04 16:31 | 32.44415 | -82.51698 | 36146 ft | 440 kts | 201° |
| 2026-05-04 16:32 | 32.26539 | -82.56641 | 35800 ft | 443 kts | 201° |
| 2026-05-04 16:33 | 32.20530 | -82.58288 | 35297 ft | 444 kts | 200° |
| 2026-05-04 16:33 | 32.14507 | -82.59943 | 34795 ft | 444 kts | 200° |
| 2026-05-04 16:34 | 32.08489 | -82.61602 | 34186 ft | 445 kts | 200° |
| 2026-05-04 16:34 | 32.05449 | -82.62438 | 33147 ft | 451 kts | 200° |
| 2026-05-04 16:35 | 31.96154 | -82.65001 | 29980 ft | 464 kts | 200° |
| 2026-05-04 16:35 | 31.86644 | -82.67186 | 26497 ft | 461 kts | 189° |
| 2026-05-04 16:36 | 31.83431 | -82.67164 | 25672 ft | 466 kts | 181° |
| 2026-05-04 16:36 | 31.76993 | -82.66336 | 25170 ft | 468 kts | 179° |
| 2026-05-04 16:37 | 31.70378 | -82.65505 | 24668 ft | 484 kts | 179° |
| 2026-05-04 16:37 | 31.67018 | -82.65081 | 24417 ft | 487 kts | 178° |
| 2026-05-04 16:37 | 31.60275 | -82.64213 | 23917 ft | 486 kts | 178° |
| 2026-05-04 16:38 | 31.53733 | -82.63344 | 23411 ft | 455 kts | 178° |
| 2026-05-04 16:39 | 31.44841 | -82.61357 | 22698 ft | 421 kts | 161° |
| 2026-05-04 16:39 | 31.39945 | -82.57888 | 22324 ft | 402 kts | 147° |
| 2026-05-04 16:40 | 31.35568 | -82.54145 | 21964 ft | 380 kts | 148° |
| 2026-05-04 16:40 | 31.31323 | -82.50552 | 21199 ft | 373 kts | 148° |
| 2026-05-04 16:41 | 31.27142 | -82.47024 | 20375 ft | 368 kts | 147° |
| 2026-05-04 16:41 | 31.21026 | -82.41857 | 18703 ft | 357 kts | 147° |
| 2026-05-04 16:42 | 31.15747 | -82.37381 | 16918 ft | 347 kts | 146° |
| 2026-05-04 16:43 | 31.11889 | -82.34125 | 15675 ft | 338 kts | 146° |
| 2026-05-04 16:43 | 31.08124 | -82.30958 | 14443 ft | 329 kts | 146° |
| 2026-05-04 16:43 | 31.06276 | -82.29404 | 13859 ft | 324 kts | 146° |
| 2026-05-04 16:44 | 30.98961 | -82.23710 | 12062 ft | 314 kts | 149° |
| 2026-05-04 16:45 | 30.95147 | -82.21161 | 11131 ft | 317 kts | 153° |
| 2026-05-04 16:46 | 30.89360 | -82.17592 | 9958 ft | 312 kts | 152° |
| 2026-05-04 16:46 | 30.85565 | -82.15204 | 9154 ft | 308 kts | 152° |
| 2026-05-04 16:47 | 30.81893 | -82.12871 | 8360 ft | 292 kts | 151° |
| 2026-05-04 16:47 | 30.78380 | -82.10638 | 7559 ft | 285 kts | 151° |
| 2026-05-04 16:48 | 30.73227 | -82.07373 | 6365 ft | 278 kts | 150° |
| 2026-05-04 16:48 | 30.71532 | -82.06298 | 5972 ft | 276 kts | 150° |
| 2026-05-04 16:49 | 30.68184 | -82.04174 | 5192 ft | 271 kts | 150° |
| 2026-05-04 16:49 | 30.64894 | -82.02096 | 4391 ft | 267 kts | 150° |
| 2026-05-04 16:50 | 30.61645 | -82.00044 | 3692 ft | 263 kts | 150° |
| 2026-05-04 16:50 | 30.58487 | -81.98047 | 3195 ft | 254 kts | 150° |
| 2026-05-04 16:51 | 30.55418 | -81.96108 | 2689 ft | 245 kts | 150° |
| 2026-05-04 16:51 | 30.53960 | -81.95185 | 2445 ft | 240 kts | 150° |
| 2026-05-04 16:51 | 30.51084 | -81.93371 | 2044 ft | 227 kts | 150° |
| 2026-05-04 16:52 | 30.48467 | -81.91724 | 2015 ft | 201 kts | 149° |
| 2026-05-04 16:52 | 30.47253 | -81.90957 | 2049 ft | 196 kts | 149° |
| 2026-05-04 16:53 | 30.45251 | -81.89028 | 2029 ft | 177 kts | 120° |
| 2026-05-04 16:53 | 30.44997 | -81.85062 | 2019 ft | 168 kts | 70° |
| 2026-05-04 16:54 | 30.45391 | -81.83784 | 2020 ft | 168 kts | 71° |
| 2026-05-04 16:55 | 30.46883 | -81.78929 | 1635 ft | 140 kts | 70° |
| 2026-05-04 16:55 | 30.47518 | -81.76861 | 1288 ft | 135 kts | 70° |
| 2026-05-04 16:56 | 30.48142 | -81.74826 | 941 ft | 133 kts | 70° |
| 2026-05-04 16:56 | 30.49061 | -81.71781 | 422 ft | 135 kts | 71° |
| 2026-05-04 16:57 | 30.49382 | -81.70755 | 234 ft | 135 kts | 69° |
| 2026-05-04 16:57 | 30.49929 | -81.69005 | 35 ft | 58 kts | 71° |
| 2026-05-04 16:58 | 30.50028 | -81.68541 | 37 ft | 19 kts | 105° |
| 2026-05-04 16:58 | 30.49929 | -81.68446 | 35 ft | 20 kts | 168° |
| 2026-05-04 16:59 | 30.49629 | -81.68502 | 35 ft | 23 kts | 191° |
| 2026-05-04 17:00 | 30.49311 | -81.68789 | 35 ft | 10 kts | 236° |
| 2026-05-04 17:00 | 30.49103 | -81.68754 | 33 ft | 14 kts | 153° |
| 2026-05-04 17:01 | 30.49041 | -81.68683 | 35 ft | 0 kts | 120° |